Time;durP1;ratioP1;P1;durP2;ratioP2;P2;SDS_P1;SDS_P2;PMS_P1;PMS_P2;Temp;Humidity;BMP_temperature;BMP_pressure;BME280_temperature;BME280_humidity;BME280_pressure;Samples;Min_cycle;Max_cycle;Signal;HPM_P1;HPM_P2
2020/02/06 00:01:27;;;;;;;3.97;3.49;;;;;;;19.18;39.04;102420.18;;;;-58
2020/02/06 00:04:27;;;;;;;3.89;3.37;;;;;;;19.17;39.06;102410.81;;;;-57
2020/02/06 00:08:28;;;;;;;3.91;3.26;;;;;;;19.15;39.01;102407.75;;;;-57
2020/02/06 00:11:27;;;;;;;3.96;3.27;;;;;;;19.13;39.07;102407.55;;;;-57
2020/02/06 00:14:27;;;;;;;4.23;3.58;;;;;;;19.12;39.06;102404.73;;;;-58
2020/02/06 00:17:27;;;;;;;4.27;3.44;;;;;;;19.11;39.06;102402.14;;;;-58
2020/02/06 00:20:27;;;;;;;4.48;3.58;;;;;;;19.08;39.06;102403.44;;;;-57
2020/02/06 00:23:27;;;;;;;4.23;3.57;;;;;;;19.07;39.11;102402.64;;;;-57
2020/02/06 00:26:27;;;;;;;3.98;3.55;;;;;;;19.06;39.04;102396.73;;;;-57
2020/02/06 00:29:27;;;;;;;3.92;3.41;;;;;;;19.04;39.08;102397.00;;;;-57
2020/02/06 00:32:27;;;;;;;5.12;3.67;;;;;;;19.02;39.05;102382.83;;;;-58
2020/02/06 00:35:27;;;;;;;3.99;3.37;;;;;;;19.01;39.14;102375.89;;;;-57
2020/02/06 00:38:27;;;;;;;3.70;3.35;;;;;;;19.00;39.09;102372.13;;;;-58
2020/02/06 00:41:27;;;;;;;4.09;3.53;;;;;;;18.99;39.12;102369.18;;;;-57
2020/02/06 00:44:27;;;;;;;4.51;3.39;;;;;;;18.98;39.12;102376.19;;;;-58
2020/02/06 00:47:30;;;;;;;4.15;3.49;;;;;;;18.97;39.08;102369.75;;;;-58
2020/02/06 00:50:27;;;;;;;3.82;3.42;;;;;;;18.95;39.09;102368.09;;;;-58
2020/02/06 00:53:27;;;;;;;3.93;3.34;;;;;;;18.93;39.11;102370.84;;;;-58
2020/02/06 00:56:27;;;;;;;4.03;3.21;;;;;;;18.92;39.14;102369.81;;;;-58
2020/02/06 00:59:27;;;;;;;3.95;3.15;;;;;;;18.91;39.14;102366.50;;;;-58
2020/02/06 01:03:26;;;;;;;3.67;3.29;;;;;;;18.90;39.09;102363.80;;;;-57
2020/02/06 01:06:27;;;;;;;3.68;3.31;;;;;;;18.88;39.08;102360.74;;;;-58
2020/02/06 01:09:27;;;;;;;3.84;3.18;;;;;;;18.87;39.11;102364.23;;;;-57
2020/02/06 01:12:27;;;;;;;3.64;3.11;;;;;;;18.86;39.11;102362.37;;;;-58
2020/02/06 01:15:27;;;;;;;3.91;3.21;;;;;;;18.85;39.13;102359.28;;;;-57
2020/02/06 01:18:27;;;;;;;3.67;3.22;;;;;;;18.83;39.07;102353.94;;;;-57
2020/02/06 01:21:27;;;;;;;3.86;3.23;;;;;;;18.82;39.10;102354.75;;;;-57
2020/02/06 01:24:27;;;;;;;3.87;3.42;;;;;;;18.81;39.07;102357.30;;;;-57
2020/02/06 01:27:27;;;;;;;4.25;3.42;;;;;;;18.80;39.11;102359.67;;;;-57
2020/02/06 01:30:27;;;;;;;3.33;3.01;;;;;;;18.79;39.14;102355.67;;;;-57
2020/02/06 01:33:27;;;;;;;5.41;3.43;;;;;;;18.78;39.15;102354.16;;;;-57
2020/02/06 01:36:27;;;;;;;3.77;3.23;;;;;;;18.77;39.09;102350.30;;;;-57
2020/02/06 01:39:27;;;;;;;3.83;3.28;;;;;;;18.76;39.17;102349.98;;;;-57
2020/02/06 01:42:27;;;;;;;3.31;3.01;;;;;;;18.74;39.16;102350.90;;;;-57
2020/02/06 01:45:27;;;;;;;3.53;3.16;;;;;;;18.73;39.13;102346.47;;;;-57
2020/02/06 01:48:27;;;;;;;3.50;3.01;;;;;;;18.72;39.10;102335.71;;;;-57
2020/02/06 01:51:27;;;;;;;3.81;2.93;;;;;;;18.71;39.14;102331.56;;;;-57
2020/02/06 01:54:27;;;;;;;3.38;3.08;;;;;;;18.69;39.15;102334.11;;;;-57
2020/02/06 01:57:27;;;;;;;2.93;2.67;;;;;;;18.68;39.14;102335.09;;;;-57
2020/02/06 02:00:27;;;;;;;3.46;3.05;;;;;;;18.68;39.13;102340.25;;;;-57
2020/02/06 02:03:27;;;;;;;3.59;2.98;;;;;;;18.66;39.15;102339.62;;;;-57
2020/02/06 02:06:27;;;;;;;3.31;2.91;;;;;;;18.65;39.14;102341.88;;;;-57
2020/02/06 02:09:27;;;;;;;3.17;2.87;;;;;;;18.65;39.17;102343.53;;;;-57
2020/02/06 02:12:27;;;;;;;3.15;2.77;;;;;;;18.64;39.14;102344.12;;;;-57
2020/02/06 02:15:27;;;;;;;4.21;3.02;;;;;;;18.62;39.16;102330.55;;;;-57
2020/02/06 02:18:27;;;;;;;3.44;3.01;;;;;;;18.62;39.16;102322.34;;;;-57
2020/02/06 02:21:27;;;;;;;3.97;3.14;;;;;;;18.60;39.12;102317.04;;;;-57
2020/02/06 02:24:27;;;;;;;3.17;2.87;;;;;;;18.59;39.16;102317.19;;;;-57
2020/02/06 02:27:28;;;;;;;3.07;2.53;;;;;;;18.59;39.17;102317.08;;;;-57
2020/02/06 02:35:36;;;;;;;3.33;2.89;;;;;;;18.56;39.11;102301.72;;;;-57
2020/02/06 02:38:27;;;;;;;3.41;2.89;;;;;;;18.55;39.18;102303.98;;;;-58
2020/02/06 02:41:27;;;;;;;3.85;2.95;;;;;;;18.55;39.19;102302.52;;;;-57
2020/02/06 02:44:27;;;;;;;3.29;2.89;;;;;;;18.53;39.16;102296.64;;;;-57
2020/02/06 02:47:27;;;;;;;3.12;2.75;;;;;;;18.52;39.13;102291.16;;;;-57
2020/02/06 02:50:27;;;;;;;3.32;2.69;;;;;;;18.51;39.10;102285.77;;;;-57
2020/02/06 02:53:27;;;;;;;3.35;2.81;;;;;;;18.50;39.16;102276.39;;;;-57
2020/02/06 02:56:27;;;;;;;3.29;2.63;;;;;;;18.49;39.16;102267.55;;;;-57
2020/02/06 02:59:27;;;;;;;3.24;2.63;;;;;;;18.49;39.17;102267.16;;;;-57
2020/02/06 03:02:27;;;;;;;3.47;2.69;;;;;;;18.48;39.18;102262.34;;;;-57
2020/02/06 03:05:27;;;;;;;4.09;2.85;;;;;;;18.47;39.18;102269.46;;;;-57
2020/02/06 03:08:27;;;;;;;2.99;2.69;;;;;;;18.46;39.17;102279.20;;;;-57
2020/02/06 03:11:27;;;;;;;3.01;2.57;;;;;;;18.45;39.19;102273.24;;;;-57
2020/02/06 03:14:27;;;;;;;2.93;2.63;;;;;;;18.44;39.15;102263.85;;;;-57
2020/02/06 03:17:48;;;;;;;2.95;2.65;;;;;;;18.43;39.16;102263.91;;;;-57
2020/02/06 03:20:27;;;;;;;2.93;2.57;;;;;;;18.42;39.18;102266.67;;;;-57
2020/02/06 03:23:27;;;;;;;3.35;2.76;;;;;;;18.42;39.14;102278.75;;;;-57
2020/02/06 03:26:27;;;;;;;3.05;2.67;;;;;;;18.41;39.17;102281.02;;;;-57
2020/02/06 03:29:27;;;;;;;3.72;2.73;;;;;;;18.40;39.13;102284.47;;;;-57
2020/02/06 03:32:27;;;;;;;3.22;2.67;;;;;;;18.39;39.20;102274.34;;;;-57
2020/02/06 03:35:27;;;;;;;3.48;2.87;;;;;;;18.39;39.17;102271.55;;;;-57
2020/02/06 03:38:34;;;;;;;3.23;2.66;;;;;;;18.38;39.17;102274.65;;;;-57
2020/02/06 03:41:27;;;;;;;3.03;2.70;;;;;;;18.38;39.20;102280.34;;;;-57
2020/02/06 03:44:27;;;;;;;3.37;2.80;;;;;;;18.36;39.15;102279.02;;;;-57
2020/02/06 03:47:27;;;;;;;2.97;2.49;;;;;;;18.35;39.20;102276.92;;;;-57
2020/02/06 03:50:27;;;;;;;3.29;2.71;;;;;;;18.35;39.16;102274.19;;;;-57
2020/02/06 03:53:27;;;;;;;2.97;2.69;;;;;;;18.33;39.17;102279.19;;;;-57
2020/02/06 03:56:27;;;;;;;3.45;2.61;;;;;;;18.32;39.18;102292.49;;;;-57
2020/02/06 03:59:32;;;;;;;2.80;2.49;;;;;;;18.32;39.18;102293.97;;;;-57
2020/02/06 04:02:32;;;;;;;2.81;2.52;;;;;;;18.31;39.15;102286.42;;;;-57
2020/02/06 04:05:31;;;;;;;2.83;2.57;;;;;;;18.30;39.16;102289.19;;;;-57
2020/02/06 04:08:34;;;;;;;2.75;2.35;;;;;;;18.29;39.18;102283.59;;;;-57
2020/02/06 04:11:27;;;;;;;2.64;2.41;;;;;;;18.29;39.19;102278.35;;;;-57
2020/02/06 04:14:27;;;;;;;2.81;2.45;;;;;;;18.27;39.13;102275.13;;;;-57
2020/02/06 04:17:30;;;;;;;2.62;2.41;;;;;;;18.27;39.21;102272.90;;;;-57
2020/02/06 04:20:27;;;;;;;2.61;2.41;;;;;;;18.27;39.12;102274.52;;;;-57
2020/02/06 04:23:27;;;;;;;3.12;2.39;;;;;;;18.26;39.16;102272.38;;;;-57
2020/02/06 04:26:27;;;;;;;3.60;2.43;;;;;;;18.25;39.16;102276.37;;;;-57
2020/02/06 04:29:27;;;;;;;3.87;2.61;;;;;;;18.23;39.20;102275.78;;;;-57
2020/02/06 04:32:27;;;;;;;2.55;2.35;;;;;;;18.23;39.17;102268.26;;;;-57
2020/02/06 04:35:27;;;;;;;3.25;2.61;;;;;;;18.22;39.17;102258.42;;;;-57
2020/02/06 04:38:27;;;;;;;2.64;2.23;;;;;;;18.23;39.15;102251.92;;;;-57
2020/02/06 04:41:27;;;;;;;3.10;2.35;;;;;;;18.22;39.12;102237.13;;;;-57
2020/02/06 04:44:27;;;;;;;2.59;2.35;;;;;;;18.22;39.18;102230.44;;;;-57
2020/02/06 04:47:27;;;;;;;2.68;2.23;;;;;;;18.22;39.20;102237.02;;;;-57
2020/02/06 04:50:27;;;;;;;2.46;2.26;;;;;;;18.24;39.33;102242.95;;;;-57
2020/02/06 04:53:27;;;;;;;2.59;2.37;;;;;;;18.25;39.28;102245.88;;;;-57
2020/02/06 04:56:27;;;;;;;2.56;2.36;;;;;;;18.26;39.25;102241.71;;;;-57
2020/02/06 04:59:27;;;;;;;2.65;2.27;;;;;;;18.28;39.26;102243.04;;;;-57
2020/02/06 05:02:27;;;;;;;2.41;2.21;;;;;;;18.30;39.38;102243.86;;;;-57
2020/02/06 05:05:27;;;;;;;2.80;2.33;;;;;;;18.33;39.44;102236.02;;;;-57
2020/02/06 05:08:27;;;;;;;2.67;2.19;;;;;;;18.35;39.51;102233.99;;;;-57
2020/02/06 05:11:27;;;;;;;2.95;2.37;;;;;;;18.39;39.49;102236.36;;;;-57
2020/02/06 05:14:27;;;;;;;4.58;2.89;;;;;;;18.18;35.99;102241.78;;;;-57
2020/02/06 05:17:27;;;;;;;5.78;3.13;;;;;;;17.98;34.43;102230.55;;;;-57
2020/02/06 05:25:52;;;;;;;6.39;3.58;;;;;;;17.53;32.48;102223.97;;;;-57
2020/02/06 05:28:38;;;;;;;5.61;3.83;;;;;;;17.41;31.98;102224.72;;;;-56
2020/02/06 05:31:36;;;;;;;5.49;3.45;;;;;;;17.26;31.85;102225.36;;;;-56
2020/02/06 05:37:52;;;;;;;6.77;3.51;;;;;;;17.43;33.72;102222.80;;;;-49
2020/02/06 05:40:52;;;;;;;5.65;3.27;;;;;;;17.58;34.39;102219.58;;;;-49
2020/02/06 05:53:42;;;;;;;4.16;2.86;;;;;;;17.90;36.00;102203.05;;;;-50
2020/02/06 05:59:38;;;;;;;3.91;2.71;;;;;;;18.00;36.21;102196.54;;;;-50
2020/02/06 06:02:34;;;;;;;3.51;2.77;;;;;;;18.05;36.33;102187.80;;;;-49
2020/02/06 06:06:07;;;;;;;4.58;2.80;;;;;;;18.09;36.45;102190.52;;;;-49
2020/02/06 06:08:37;;;;;;;5.69;2.73;;;;;;;18.16;36.53;102200.80;;;;-49
2020/02/06 06:16:53;;;;;;;4.03;2.71;;;;;;;18.30;36.84;102177.12;;;;-49
2020/02/06 06:26:32;;;;;;;3.69;2.75;;;;;;;18.44;37.10;102180.89;;;;-50
2020/02/06 06:31:18;;;;;;;4.01;2.42;;;;;;;18.50;37.15;102183.69;;;;-50
2020/02/06 06:37:33;;;;;;;3.60;2.59;;;;;;;18.59;37.37;102167.70;;;;-50
2020/02/06 06:40:41;;;;;;;4.44;2.63;;;;;;;18.62;37.42;102171.94;;;;-50
2020/02/06 06:43:27;;;;;;;4.77;2.70;;;;;;;18.65;37.42;102171.12;;;;-50
2020/02/06 06:46:31;;;;;;;3.48;2.47;;;;;;;18.68;37.52;102168.67;;;;-49
2020/02/06 06:49:27;;;;;;;3.93;2.48;;;;;;;18.71;37.52;102173.13;;;;-49
2020/02/06 06:52:27;;;;;;;3.45;2.58;;;;;;;18.74;37.60;102179.94;;;;-49
2020/02/06 06:55:27;;;;;;;2.99;2.47;;;;;;;18.76;37.51;102184.83;;;;-50
2020/02/06 06:58:27;;;;;;;4.09;2.47;;;;;;;18.78;37.59;102181.67;;;;-50
2020/02/06 07:01:27;;;;;;;3.72;2.57;;;;;;;18.80;37.61;102179.55;;;;-53
2020/02/06 07:04:27;;;;;;;3.43;2.57;;;;;;;18.82;37.65;102186.45;;;;-53
2020/02/06 07:07:27;;;;;;;3.29;2.43;;;;;;;18.83;37.59;102184.86;;;;-53
2020/02/06 07:10:27;;;;;;;2.89;2.31;;;;;;;18.85;37.63;102190.75;;;;-53
2020/02/06 07:13:27;;;;;;;2.91;2.29;;;;;;;18.86;37.63;102189.83;;;;-53
2020/02/06 07:16:33;;;;;;;3.11;2.43;;;;;;;18.87;37.62;102196.88;;;;-53
2020/02/06 07:19:27;;;;;;;3.19;2.35;;;;;;;18.87;37.61;102194.31;;;;-54
2020/02/06 07:22:27;;;;;;;3.06;2.37;;;;;;;18.87;37.63;102189.56;;;;-53
2020/02/06 07:25:27;;;;;;;2.82;2.31;;;;;;;18.88;37.62;102197.84;;;;-53
2020/02/06 07:28:27;;;;;;;3.13;2.28;;;;;;;18.88;37.61;102203.11;;;;-53
2020/02/06 07:31:27;;;;;;;2.69;2.28;;;;;;;18.89;37.63;102197.69;;;;-53
2020/02/06 07:34:27;;;;;;;2.75;2.29;;;;;;;18.88;37.63;102197.92;;;;-53
2020/02/06 07:37:27;;;;;;;2.73;2.35;;;;;;;18.87;37.63;102199.38;;;;-53
2020/02/06 07:40:27;;;;;;;3.11;2.35;;;;;;;18.87;37.62;102193.25;;;;-53
2020/02/06 07:43:27;;;;;;;2.84;2.26;;;;;;;18.88;37.66;102193.60;;;;-54
2020/02/06 07:46:27;;;;;;;3.21;2.52;;;;;;;18.88;37.62;102204.20;;;;-53
2020/02/06 07:49:27;;;;;;;5.31;2.40;;;;;;;18.90;37.99;102195.37;;;;-55
2020/02/06 07:52:27;;;;;;;4.67;2.93;;;;;;;18.89;37.67;102193.73;;;;-54
2020/02/06 07:55:27;;;;;;;4.10;2.71;;;;;;;18.89;37.43;102197.16;;;;-55
2020/02/06 07:58:27;;;;;;;4.41;2.79;;;;;;;18.91;37.48;102201.14;;;;-57
2020/02/06 08:01:27;;;;;;;4.17;2.69;;;;;;;18.91;37.25;102189.60;;;;-58
2020/02/06 08:04:31;;;;;;;4.40;2.76;;;;;;;18.92;37.20;102192.00;;;;-56
2020/02/06 08:07:27;;;;;;;3.67;2.85;;;;;;;18.92;36.97;102195.02;;;;-56
2020/02/06 08:10:27;;;;;;;4.30;3.25;;;;;;;18.93;36.71;102192.58;;;;-56
2020/02/06 08:13:27;;;;;;;4.53;3.24;;;;;;;18.95;36.61;102184.88;;;;-57
2020/02/06 08:16:27;;;;;;;3.99;2.94;;;;;;;18.98;37.43;102191.35;;;;-52
2020/02/06 08:19:27;;;;;;;4.43;3.01;;;;;;;19.01;37.82;102193.70;;;;-56
2020/02/06 08:22:27;;;;;;;4.05;2.80;;;;;;;19.04;37.90;102199.14;;;;-61
2020/02/06 08:25:27;;;;;;;3.70;2.71;;;;;;;19.07;37.96;102203.07;;;;-54
2020/02/06 08:28:27;;;;;;;4.68;2.81;;;;;;;19.09;38.05;102201.98;;;;-55
2020/02/06 08:31:27;;;;;;;3.69;2.71;;;;;;;19.12;38.16;102206.95;;;;-61
2020/02/06 08:34:27;;;;;;;3.82;2.54;;;;;;;19.15;38.30;102205.81;;;;-53
2020/02/06 08:37:27;;;;;;;3.98;2.47;;;;;;;19.20;38.39;102199.95;;;;-53
2020/02/06 08:40:27;;;;;;;3.24;2.63;;;;;;;19.20;38.02;102209.16;;;;-53
2020/02/06 08:43:27;;;;;;;3.08;2.56;;;;;;;19.20;37.89;102198.95;;;;-53
2020/02/06 08:46:27;;;;;;;7.89;2.97;;;;;;;19.23;38.07;102199.00;;;;-54
2020/02/06 08:49:27;;;;;;;4.30;2.64;;;;;;;19.24;37.92;102204.86;;;;-55
2020/02/06 08:52:27;;;;;;;4.31;2.85;;;;;;;19.27;38.10;102210.33;;;;-59
2020/02/06 08:55:27;;;;;;;3.92;2.64;;;;;;;19.28;37.81;102210.86;;;;-58
2020/02/06 08:58:27;;;;;;;2.58;2.31;;;;;;;19.31;37.75;102207.62;;;;-55
2020/02/06 09:01:27;;;;;;;3.05;2.69;;;;;;;19.34;37.64;102207.67;;;;-59
2020/02/06 09:04:27;;;;;;;6.51;2.90;;;;;;;19.37;37.67;102206.95;;;;-58
2020/02/06 09:07:27;;;;;;;3.51;2.51;;;;;;;19.41;37.62;102203.77;;;;-59
2020/02/06 09:10:27;;;;;;;3.90;2.85;;;;;;;19.45;37.66;102201.77;;;;-58
2020/02/06 09:13:27;;;;;;;2.83;2.43;;;;;;;19.46;37.73;102198.06;;;;-57
2020/02/06 09:16:27;;;;;;;3.54;2.44;;;;;;;19.48;37.77;102201.77;;;;-57
2020/02/06 09:19:27;;;;;;;3.73;2.77;;;;;;;19.49;37.77;102203.06;;;;-59
2020/02/06 09:22:27;;;;;;;2.87;2.29;;;;;;;19.51;37.84;102202.04;;;;-58
2020/02/06 09:25:27;;;;;;;3.19;2.45;;;;;;;19.51;37.82;102195.91;;;;-58
2020/02/06 09:28:27;;;;;;;3.37;2.54;;;;;;;19.53;37.81;102183.71;;;;-58
2020/02/06 09:31:27;;;;;;;3.15;2.54;;;;;;;19.55;37.77;102191.23;;;;-58
2020/02/06 09:34:27;;;;;;;2.99;2.47;;;;;;;19.56;37.78;102193.07;;;;-58
2020/02/06 09:37:27;;;;;;;2.51;2.25;;;;;;;19.58;37.76;102186.86;;;;-58
2020/02/06 09:40:27;;;;;;;3.25;2.41;;;;;;;19.60;37.81;102189.97;;;;-59
2020/02/06 09:43:27;;;;;;;2.87;2.57;;;;;;;19.61;37.82;102188.45;;;;-59
2020/02/06 09:46:27;;;;;;;3.11;2.30;;;;;;;19.62;37.80;102197.93;;;;-58
2020/02/06 09:49:27;;;;;;;2.94;2.33;;;;;;;19.63;37.82;102204.66;;;;-58
2020/02/06 09:52:27;;;;;;;3.07;2.31;;;;;;;19.66;37.83;102206.41;;;;-58
2020/02/06 09:55:27;;;;;;;2.91;2.41;;;;;;;19.67;37.83;102201.47;;;;-59
2020/02/06 09:58:27;;;;;;;3.10;2.20;;;;;;;19.68;37.86;102207.58;;;;-58
2020/02/06 10:01:27;;;;;;;2.81;2.39;;;;;;;19.69;37.84;102207.26;;;;-59
2020/02/06 10:04:27;;;;;;;2.89;2.38;;;;;;;19.71;37.82;102206.23;;;;-58
2020/02/06 10:07:27;;;;;;;2.61;2.33;;;;;;;19.72;37.85;102203.95;;;;-57
2020/02/06 10:11:30;;;;;;;2.77;2.26;;;;;;;19.73;37.81;102191.36;;;;-58
2020/02/06 10:14:27;;;;;;;3.61;2.19;;;;;;;19.77;37.80;102192.86;;;;-58
2020/02/06 10:17:27;;;;;;;2.52;2.32;;;;;;;19.76;37.80;102186.60;;;;-57
2020/02/06 10:20:27;;;;;;;2.79;2.14;;;;;;;19.77;37.82;102180.56;;;;-58
2020/02/06 10:23:27;;;;;;;2.95;2.30;;;;;;;19.77;37.79;102178.40;;;;-58
2020/02/06 10:26:27;;;;;;;2.37;2.17;;;;;;;19.78;37.71;102177.50;;;;-53
2020/02/06 10:29:29;;;;;;;3.56;2.41;;;;;;;19.81;38.36;102167.77;;;;-57
2020/02/06 10:35:55;;;;;;;2.77;2.05;;;;;;;19.87;38.40;102166.81;;;;-60
2020/02/06 10:38:46;;;;;;;3.71;2.34;;;;;;;19.90;38.46;102155.37;;;;-59
2020/02/06 10:45:27;;;;;;;3.19;2.47;;;;;;;19.93;38.58;102159.08;;;;-60
2020/02/06 10:48:27;;;;;;;2.53;2.33;;;;;;;19.94;38.43;102164.95;;;;-59
2020/02/06 10:51:27;;;;;;;3.59;2.14;;;;;;;19.94;38.34;102156.57;;;;-65
2020/02/06 10:54:27;;;;;;;2.58;2.25;;;;;;;19.95;38.45;102150.27;;;;-61
2020/02/06 10:57:27;;;;;;;2.73;2.25;;;;;;;19.96;38.31;102155.53;;;;-58
2020/02/06 11:00:27;;;;;;;3.75;2.32;;;;;;;19.96;38.42;102156.98;;;;-57
2020/02/06 11:03:27;;;;;;;4.27;2.28;;;;;;;19.96;38.50;102155.25;;;;-57
2020/02/06 11:06:27;;;;;;;4.01;2.43;;;;;;;19.97;38.57;102147.78;;;;-60
2020/02/06 11:09:27;;;;;;;3.57;2.43;;;;;;;19.97;38.24;102141.06;;;;-60
2020/02/06 11:12:27;;;;;;;3.59;2.20;;;;;;;19.96;38.18;102127.75;;;;-60
2020/02/06 11:15:27;;;;;;;2.53;2.29;;;;;;;19.95;38.07;102121.03;;;;-60
2020/02/06 11:18:27;;;;;;;3.85;2.10;;;;;;;19.94;38.05;102117.61;;;;-60
2020/02/06 11:21:28;;;;;;;2.82;2.27;;;;;;;19.94;38.04;102113.47;;;;-50
2020/02/06 11:24:27;;;;;;;3.52;2.39;;;;;;;19.93;37.92;102104.79;;;;-50
2020/02/06 11:27:27;;;;;;;3.35;2.19;;;;;;;19.93;37.97;102100.94;;;;-50
2020/02/06 11:30:27;;;;;;;2.43;2.21;;;;;;;19.92;37.96;102111.27;;;;-50
2020/02/06 11:33:27;;;;;;;2.43;2.22;;;;;;;19.93;37.93;102114.63;;;;-51
2020/02/06 11:36:27;;;;;;;2.47;2.26;;;;;;;19.94;37.94;102121.58;;;;-50
2020/02/06 11:39:27;;;;;;;2.48;2.28;;;;;;;19.94;37.92;102127.39;;;;-50
2020/02/06 11:42:27;;;;;;;2.59;2.10;;;;;;;19.93;37.94;102126.14;;;;-50
2020/02/06 11:45:27;;;;;;;2.71;2.39;;;;;;;19.94;37.85;102127.94;;;;-50
2020/02/06 11:48:27;;;;;;;2.71;2.26;;;;;;;19.94;37.92;102118.22;;;;-50
2020/02/06 11:51:27;;;;;;;2.46;2.12;;;;;;;19.96;37.91;102120.20;;;;-50
2020/02/06 11:54:27;;;;;;;2.67;2.27;;;;;;;19.94;37.95;102118.61;;;;-50
2020/02/06 11:57:27;;;;;;;2.95;2.30;;;;;;;19.97;37.88;102115.58;;;;-50
2020/02/06 12:00:27;;;;;;;2.75;2.21;;;;;;;19.96;37.86;102114.16;;;;-50
2020/02/06 12:03:27;;;;;;;2.85;2.29;;;;;;;19.98;37.92;102108.10;;;;-50
2020/02/06 12:06:27;;;;;;;2.75;2.30;;;;;;;19.98;37.89;102094.44;;;;-60
2020/02/06 12:09:27;;;;;;;2.45;2.25;;;;;;;19.99;37.81;102100.59;;;;-60
2020/02/06 12:12:27;;;;;;;2.61;2.12;;;;;;;20.00;37.87;102091.28;;;;-60
2020/02/06 12:19:37;;;;;;;2.75;2.13;;;;;;;20.01;37.92;102097.72;;;;-60
2020/02/06 12:22:30;;;;;;;2.32;2.08;;;;;;;20.02;37.83;102094.78;;;;-60
2020/02/06 12:25:27;;;;;;;2.27;2.00;;;;;;;20.02;37.91;102095.38;;;;-60
2020/02/06 12:28:27;;;;;;;2.62;2.16;;;;;;;20.03;37.97;102094.27;;;;-60
2020/02/06 12:31:27;;;;;;;2.39;2.19;;;;;;;20.04;37.96;102090.20;;;;-60
2020/02/06 12:34:27;;;;;;;4.03;2.19;;;;;;;20.07;38.09;102090.14;;;;-55
2020/02/06 12:37:27;;;;;;;7.39;3.62;;;;;;;19.94;36.68;102085.30;;;;-60
2020/02/06 12:40:27;;;;;;;9.68;3.33;;;;;;;19.99;37.12;102075.78;;;;-59
2020/02/06 12:43:27;;;;;;;7.87;3.03;;;;;;;20.03;37.47;102073.59;;;;-60
2020/02/06 12:46:27;;;;;;;6.15;2.87;;;;;;;20.07;37.23;102066.59;;;;-60
2020/02/06 12:49:27;;;;;;;3.75;2.77;;;;;;;20.11;37.30;102064.59;;;;-56
2020/02/06 12:52:27;;;;;;;8.33;3.01;;;;;;;20.13;37.41;102062.64;;;;-55
2020/02/06 12:55:27;;;;;;;6.54;2.71;;;;;;;20.19;37.92;102059.82;;;;-56
2020/02/06 12:58:27;;;;;;;5.38;2.85;;;;;;;20.23;38.15;102060.31;;;;-61
2020/02/06 13:01:27;;;;;;;6.31;2.57;;;;;;;20.25;38.11;102054.45;;;;-54
2020/02/06 13:04:27;;;;;;;4.88;2.65;;;;;;;20.30;38.33;102053.11;;;;-54
2020/02/06 13:07:27;;;;;;;6.07;2.76;;;;;;;20.31;38.13;102049.11;;;;-48
2020/02/06 13:10:27;;;;;;;4.41;2.63;;;;;;;20.30;37.93;102045.84;;;;-51
2020/02/06 13:13:27;;;;;;;4.63;2.68;;;;;;;20.29;38.07;102040.13;;;;-50
2020/02/06 13:16:27;;;;;;;4.29;2.59;;;;;;;20.30;37.93;102034.83;;;;-49
2020/02/06 13:19:27;;;;;;;3.51;2.85;;;;;;;20.29;38.01;102026.53;;;;-47
2020/02/06 13:22:27;;;;;;;5.18;2.69;;;;;;;20.30;38.12;102020.28;;;;-50
2020/02/06 13:25:27;;;;;;;4.71;2.60;;;;;;;20.31;38.04;102007.44;;;;-58
2020/02/06 13:28:27;;;;;;;3.42;2.57;;;;;;;20.31;38.03;102003.91;;;;-52
2020/02/06 13:31:27;;;;;;;3.33;2.55;;;;;;;20.31;38.11;101993.86;;;;-53
2020/02/06 13:34:27;;;;;;;3.54;2.51;;;;;;;20.33;38.12;101990.63;;;;-50
2020/02/06 13:37:27;;;;;;;2.99;2.44;;;;;;;20.34;38.09;101987.62;;;;-54
2020/02/06 13:40:27;;;;;;;4.88;2.55;;;;;;;20.34;38.17;101981.06;;;;-51
2020/02/06 13:54:49;;;;;;;5.31;2.64;;;;;;;20.41;38.02;101966.26;;;;-58
2020/02/06 13:57:32;;;;;;;3.70;2.47;;;;;;;20.42;37.84;101961.52;;;;-51
2020/02/06 14:00:46;;;;;;;3.54;2.64;;;;;;;20.41;37.60;101966.93;;;;-50
2020/02/06 14:04:34;;;;;;;2.83;2.37;;;;;;;20.39;37.52;101966.61;;;;-53
2020/02/06 14:07:52;;;;;;;5.85;2.55;;;;;;;20.38;37.40;101965.27;;;;-53
2020/02/06 14:10:27;;;;;;;2.97;2.41;;;;;;;20.38;37.26;101960.58;;;;-52
2020/02/06 14:13:27;;;;;;;6.41;2.46;;;;;;;20.36;37.65;101957.70;;;;-51
2020/02/06 14:16:27;;;;;;;3.24;2.57;;;;;;;20.36;37.73;101960.94;;;;-52
2020/02/06 14:19:27;;;;;;;5.47;2.73;;;;;;;20.37;37.53;101956.92;;;;-50
2020/02/06 14:22:27;;;;;;;6.64;2.65;;;;;;;20.36;37.75;101953.69;;;;-51
2020/02/06 14:25:27;;;;;;;4.09;2.36;;;;;;;20.36;37.78;101949.47;;;;-51
2020/02/06 14:28:27;;;;;;;3.29;2.33;;;;;;;20.36;37.74;101953.69;;;;-51
2020/02/06 14:31:27;;;;;;;4.30;2.36;;;;;;;20.35;37.80;101956.80;;;;-50
2020/02/06 14:34:27;;;;;;;4.85;2.40;;;;;;;20.36;37.82;101951.21;;;;-52
2020/02/06 14:37:27;;;;;;;4.81;2.49;;;;;;;20.36;37.90;101954.34;;;;-50
2020/02/06 14:40:27;;;;;;;3.49;2.30;;;;;;;20.37;37.99;101966.56;;;;-49
2020/02/06 14:43:27;;;;;;;3.03;2.29;;;;;;;20.37;37.94;101968.89;;;;-53
2020/02/06 14:46:27;;;;;;;3.89;2.32;;;;;;;20.38;37.96;101972.42;;;;-52
2020/02/06 14:49:27;;;;;;;4.31;2.21;;;;;;;20.38;38.00;101977.14;;;;-50
2020/02/06 14:52:27;;;;;;;3.77;2.33;;;;;;;20.39;38.08;101987.33;;;;-53
2020/02/06 14:55:27;;;;;;;3.18;2.19;;;;;;;20.38;38.00;101991.23;;;;-55
2020/02/06 14:58:27;;;;;;;3.08;2.20;;;;;;;20.38;37.92;101988.70;;;;-54
2020/02/06 15:01:27;;;;;;;3.10;2.07;;;;;;;20.39;37.94;101990.95;;;;-51
2020/02/06 15:04:27;;;;;;;3.07;2.37;;;;;;;20.39;37.68;101993.30;;;;-51
2020/02/06 15:10:35;;;;;;;4.16;2.23;;;;;;;20.36;37.50;101991.27;;;;-52
2020/02/06 15:13:42;;;;;;;4.68;2.28;;;;;;;20.35;37.50;101989.34;;;;-51
2020/02/06 15:16:31;;;;;;;3.38;2.35;;;;;;;20.35;37.49;101994.94;;;;-51
2020/02/06 15:19:27;;;;;;;2.74;2.10;;;;;;;20.34;37.49;101992.02;;;;-51
2020/02/06 15:22:27;;;;;;;4.45;2.16;;;;;;;20.33;37.48;101989.44;;;;-51
2020/02/06 15:25:27;;;;;;;2.68;2.10;;;;;;;20.33;37.35;101992.31;;;;-51
2020/02/06 15:28:27;;;;;;;3.63;1.97;;;;;;;20.34;37.46;101993.05;;;;-51
2020/02/06 15:31:27;;;;;;;2.44;2.05;;;;;;;20.36;37.62;101983.94;;;;-57
2020/02/06 15:34:27;;;;;;;3.28;2.29;;;;;;;20.38;37.72;101977.18;;;;-57
2020/02/06 15:37:27;;;;;;;3.17;2.26;;;;;;;20.41;37.86;101978.45;;;;-59
2020/02/06 15:40:27;;;;;;;3.73;2.36;;;;;;;20.43;37.92;101976.45;;;;-50
2020/02/06 15:43:27;;;;;;;2.87;2.29;;;;;;;20.44;37.82;101977.41;;;;-53
2020/02/06 15:46:27;;;;;;;2.55;2.20;;;;;;;20.44;37.90;101982.02;;;;-51
2020/02/06 15:49:27;;;;;;;3.47;2.27;;;;;;;20.44;38.10;101985.14;;;;-51
2020/02/06 15:52:27;;;;;;;3.19;1.98;;;;;;;20.44;37.97;101988.05;;;;-49
2020/02/06 15:55:27;;;;;;;5.97;2.57;;;;;;;20.38;37.55;101991.72;;;;-51
2020/02/06 15:58:27;;;;;;;3.31;2.29;;;;;;;20.38;37.54;101990.73;;;;-52
2020/02/06 16:01:27;;;;;;;3.60;2.29;;;;;;;20.40;37.47;101989.97;;;;-52
2020/02/06 16:04:27;;;;;;;3.59;2.31;;;;;;;20.39;37.50;101982.73;;;;-53
2020/02/06 16:07:27;;;;;;;2.37;1.98;;;;;;;20.39;37.50;101986.59;;;;-52
2020/02/06 16:10:27;;;;;;;3.68;2.10;;;;;;;20.37;37.50;101987.54;;;;-52
2020/02/06 16:13:27;;;;;;;2.95;2.19;;;;;;;20.37;37.56;101984.50;;;;-53
2020/02/06 16:16:27;;;;;;;2.20;1.95;;;;;;;20.35;37.58;101983.32;;;;-53
2020/02/06 16:19:27;;;;;;;3.01;2.15;;;;;;;20.36;37.48;101981.19;;;;-52
2020/02/06 16:22:27;;;;;;;2.90;1.99;;;;;;;20.35;37.53;101981.20;;;;-52
2020/02/06 16:25:27;;;;;;;2.25;1.95;;;;;;;20.35;37.46;101983.05;;;;-52
2020/02/06 16:28:27;;;;;;;4.75;2.33;;;;;;;20.37;37.39;101986.03;;;;-52
2020/02/06 16:31:27;;;;;;;5.55;2.20;;;;;;;20.36;37.38;101989.24;;;;-52
2020/02/06 16:34:27;;;;;;;3.09;1.77;;;;;;;20.34;37.47;101986.67;;;;-52
2020/02/06 16:37:27;;;;;;;4.89;2.02;;;;;;;20.35;37.54;101985.87;;;;-52
2020/02/06 16:40:27;;;;;;;3.01;2.11;;;;;;;20.35;37.50;101989.23;;;;-51
2020/02/06 16:43:27;;;;;;;2.48;2.13;;;;;;;20.34;37.56;101988.44;;;;-51
2020/02/06 16:46:27;;;;;;;3.48;1.88;;;;;;;20.34;37.61;101988.80;;;;-51
2020/02/06 16:49:27;;;;;;;2.57;1.90;;;;;;;20.34;37.53;101992.71;;;;-51
2020/02/06 16:52:27;;;;;;;2.99;2.09;;;;;;;20.34;37.53;101997.67;;;;-51
2020/02/06 16:55:27;;;;;;;3.43;1.96;;;;;;;20.34;37.55;101996.72;;;;-51
2020/02/06 16:59:54;;;;;;;4.31;2.05;;;;;;;20.34;37.64;101996.05;;;;-51
2020/02/06 17:03:30;;;;;;;2.28;1.92;;;;;;;20.33;37.62;101999.01;;;;-51
2020/02/06 17:06:29;;;;;;;2.00;1.80;;;;;;;20.32;37.70;102005.09;;;;-51
2020/02/06 17:09:27;;;;;;;2.23;1.90;;;;;;;20.31;37.71;102006.11;;;;-51
2020/02/06 17:12:27;;;;;;;2.67;1.80;;;;;;;20.33;37.57;102003.70;;;;-51
2020/02/06 17:15:27;;;;;;;3.01;2.10;;;;;;;20.32;37.65;102005.50;;;;-51
2020/02/06 17:18:27;;;;;;;3.23;1.89;;;;;;;20.32;37.64;102009.68;;;;-51
2020/02/06 17:21:27;;;;;;;2.15;1.80;;;;;;;20.32;37.59;102013.03;;;;-51
2020/02/06 17:24:27;;;;;;;4.06;1.91;;;;;;;20.31;37.64;102013.25;;;;-51
2020/02/06 17:27:27;;;;;;;2.74;1.81;;;;;;;20.31;37.61;102012.91;;;;-51
2020/02/06 17:30:27;;;;;;;1.98;1.71;;;;;;;20.31;37.60;102009.17;;;;-51
2020/02/06 17:33:27;;;;;;;2.14;1.91;;;;;;;20.30;37.68;102005.92;;;;-51
2020/02/06 17:36:27;;;;;;;2.59;2.18;;;;;;;20.29;37.62;102007.86;;;;-51
2020/02/06 17:39:27;;;;;;;2.69;2.06;;;;;;;20.28;37.77;102001.08;;;;-51
2020/02/06 17:42:27;;;;;;;2.27;2.03;;;;;;;20.29;37.73;101998.45;;;;-52
2020/02/06 17:45:28;;;;;;;2.51;2.10;;;;;;;20.29;37.61;101999.75;;;;-50
2020/02/06 17:48:37;;;;;;;2.75;2.11;;;;;;;20.29;37.60;102005.50;;;;-50
2020/02/06 17:51:46;;;;;;;2.33;1.97;;;;;;;20.29;37.65;102001.48;;;;-52
2020/02/06 17:57:45;;;;;;;2.52;2.05;;;;;;;20.29;37.69;101992.14;;;;-51
2020/02/06 18:00:37;;;;;;;2.28;1.90;;;;;;;20.31;37.64;101988.41;;;;-51